Terminal Aerodrome Forecast
Issued by NWS

Home | Current Version | Previous Version | Text Only | Print | Product List | Glossary On
Versions: 1 2 3 4 5 6 7 8 9 10 11 12 13 14
000
FTUS41 KRNK 291129
TAFLWB
TAF
KLWB 291129Z 2912/3012 VRB03KT 5SM BR SCT050 OVC120
     FM291400 24008KT P6SM BKN150
     FM292200 20006KT P6SM SCT250
     FM300900 VRB03KT 2SM BR SCT250=

USA.gov is the U.S. government's official web portal to all federal, state and local government web resources and services.